createdAt,value
2019-04-28T00:02:22.539Z,5.40
2019-04-28T00:05:13.578Z,5.40
2019-04-28T00:07:44.765Z,5.30
2019-04-28T00:10:18.446Z,5.30
2019-04-28T00:12:48.719Z,5.30
2019-04-28T00:15:41.674Z,5.30
2019-04-28T00:18:12.079Z,5.30
2019-04-28T00:21:03.924Z,5.30
2019-04-28T00:23:47.816Z,5.20
2019-04-28T00:26:43.101Z,5.10
2019-04-28T00:29:14.035Z,5.10
2019-04-28T00:31:45.256Z,5.00
2019-04-28T00:34:15.552Z,5.10
2019-04-28T00:36:48.859Z,5.10
2019-04-28T00:39:22.733Z,5.10
2019-04-28T00:41:55.742Z,5.10
2019-04-28T00:44:28.122Z,5.10
2019-04-28T00:47:01.298Z,5.10
2019-04-28T00:50:01.936Z,5.20
2019-04-28T00:52:34.661Z,5.20
2019-04-28T00:57:54.987Z,5.20
2019-04-28T01:00:28.474Z,5.20
2019-04-28T01:03:02.049Z,5.20
2019-04-28T01:05:33.122Z,5.20
2019-04-28T01:08:08.509Z,5.20
2019-04-28T01:10:37.334Z,5.20
2019-04-28T01:13:07.698Z,5.10
2019-04-28T01:15:52.928Z,5.20
2019-04-28T01:18:35.298Z,5.10
2019-04-28T01:21:07.636Z,5.10
2019-04-28T01:23:59.838Z,5.10
2019-04-28T01:26:34.701Z,5.00
2019-04-28T01:34:32.814Z,5.10
2019-04-28T01:37:02.991Z,5.10
2019-04-28T01:39:35.284Z,5.10
2019-04-28T01:42:08.092Z,5.10
2019-04-28T01:44:39.642Z,5.20
2019-04-28T01:47:10.592Z,5.20
2019-04-28T01:49:42.360Z,5.20
2019-04-28T01:52:12.568Z,5.20
2019-04-28T01:54:44.710Z,5.10
2019-04-28T01:57:16.589Z,5.10
2019-04-28T01:59:46.637Z,5.00
2019-04-28T02:02:19.940Z,5.00
2019-04-28T02:04:51.499Z,5.00
2019-04-28T02:07:23.320Z,5.00
2019-04-28T02:10:10.151Z,5.00
2019-04-28T02:12:52.033Z,5.00
2019-04-28T02:15:36.673Z,5.00
2019-04-28T02:18:19.922Z,5.00
2019-04-28T02:21:03.437Z,5.00
2019-04-28T02:23:39.780Z,5.00
2019-04-28T02:26:12.085Z,5.00
2019-04-28T02:28:41.618Z,5.00
2019-04-28T02:31:12.808Z,5.00
2019-04-28T02:33:45.125Z,5.00
2019-04-28T02:36:17.451Z,5.00
2019-04-28T02:38:47.993Z,5.00
2019-04-28T02:41:20.839Z,5.00
2019-04-28T02:43:51.635Z,5.00
2019-04-28T02:46:22.980Z,5.00
2019-04-28T02:48:54.005Z,5.00
2019-04-28T02:51:30.805Z,5.10
2019-04-28T02:54:01.982Z,5.00
2019-04-28T02:56:32.961Z,5.10
2019-04-28T02:59:04.065Z,5.10
2019-04-28T03:01:41.030Z,5.10
2019-04-28T03:04:13.252Z,5.10
2019-04-28T03:06:45.732Z,5.00
2019-04-28T03:09:20.031Z,5.00
2019-04-28T03:11:51.835Z,5.00
2019-04-28T03:14:21.930Z,4.90
2019-04-28T03:16:53.711Z,4.90
2019-04-28T03:19:23.373Z,4.90
2019-04-28T03:21:53.562Z,4.90
2019-04-28T03:24:24.326Z,4.90
2019-04-28T03:27:03.575Z,4.90
2019-04-28T03:29:40.442Z,4.90
2019-04-28T03:32:39.794Z,4.90
2019-04-28T03:35:02.843Z,4.70
2019-04-28T03:37:31.673Z,4.60
2019-04-28T03:40:01.145Z,4.60
2019-04-28T03:42:32.608Z,4.60
2019-04-28T03:45:03.915Z,4.50
2019-04-28T03:47:33.344Z,4.50
2019-04-28T03:50:06.580Z,4.50
2019-04-28T03:52:35.872Z,4.40
2019-04-28T03:55:08.102Z,4.40
2019-04-28T03:57:41.253Z,4.40
2019-04-28T04:00:14.065Z,4.30
2019-04-28T04:02:46.065Z,4.40
2019-04-28T04:05:20.609Z,4.40
2019-04-28T04:07:50.680Z,4.50
2019-04-28T04:10:54.297Z,4.60
2019-04-28T04:13:32.735Z,4.60
2019-04-28T04:16:20.692Z,4.70
2019-04-28T04:18:53.760Z,4.70
2019-04-28T04:21:25.290Z,4.80
2019-04-28T04:23:57.356Z,4.60
2019-04-28T04:26:26.791Z,4.50
2019-04-28T04:29:00.690Z,4.50
2019-04-28T04:31:31.786Z,4.50
2019-04-28T04:34:05.333Z,4.50
2019-04-28T04:36:35.827Z,4.60
2019-04-28T04:39:10.827Z,4.70
2019-04-28T04:41:40.857Z,4.80
2019-04-28T04:44:11.204Z,5.00
2019-04-28T04:46:41.603Z,5.00
2019-04-28T04:49:11.053Z,5.10
2019-04-28T04:51:43.760Z,5.10
2019-04-28T04:54:11.447Z,5.20
2019-04-28T04:56:40.697Z,5.10
2019-04-28T04:59:10.409Z,5.10
2019-04-28T05:02:03.452Z,5.00
2019-04-28T05:04:42.319Z,5.10
2019-04-28T05:07:11.596Z,5.00
2019-04-28T05:09:40.907Z,5.00
2019-04-28T05:12:10.207Z,4.90
2019-04-28T05:14:39.626Z,4.90
2019-04-28T05:17:10.387Z,4.80
2019-04-28T05:19:40.236Z,4.90
2019-04-28T05:22:10.502Z,5.10
2019-04-28T05:25:01.777Z,5.20
2019-04-28T05:27:32.499Z,5.20
2019-04-28T05:30:05.172Z,5.30
2019-04-28T05:32:42.486Z,5.40
2019-04-28T05:35:04.115Z,5.50
2019-04-28T05:37:33.414Z,5.60
2019-04-28T05:40:02.737Z,5.80
2019-04-28T05:42:32.124Z,6.00
2019-04-28T05:45:01.410Z,6.00
2019-04-28T05:47:30.752Z,5.90
2019-04-28T05:50:19.674Z,6.00
2019-04-28T05:53:08.031Z,6.00
2019-04-28T05:55:52.204Z,6.20
2019-04-28T05:58:30.155Z,6.40
2019-04-28T06:01:30.813Z,6.40
2019-04-28T06:04:02.599Z,6.60
2019-04-28T06:06:35.650Z,6.50
2019-04-28T06:09:15.969Z,6.60
2019-04-28T06:11:45.352Z,6.60
2019-04-28T06:14:14.698Z,6.60
2019-04-28T06:16:44.194Z,6.70
2019-04-28T06:19:13.498Z,6.80
2019-04-28T06:21:42.774Z,6.80
2019-04-28T06:24:12.198Z,6.90
2019-04-28T06:26:42.100Z,6.80
2019-04-28T06:29:11.511Z,6.70
2019-04-28T06:31:41.283Z,6.80
2019-04-28T06:34:10.659Z,6.90
2019-04-28T06:36:43.553Z,7.10
2019-04-28T06:39:13.512Z,7.10
2019-04-28T06:41:44.164Z,7.30
2019-04-28T06:44:15.852Z,7.30
2019-04-28T06:46:45.183Z,7.30
2019-04-28T06:49:14.553Z,7.30
2019-04-28T06:51:43.826Z,7.30
2019-04-28T06:54:13.084Z,7.30
2019-04-28T06:56:42.397Z,7.20
2019-04-28T06:59:11.845Z,7.10
2019-04-28T07:01:41.127Z,7.00
2019-04-28T07:04:10.972Z,7.00
2019-04-28T07:06:40.362Z,6.90
2019-04-28T07:09:09.697Z,6.80
2019-04-28T07:11:39.146Z,6.80
2019-04-28T07:14:08.419Z,6.90
2019-04-28T07:16:37.741Z,6.90
2019-04-28T07:19:07.107Z,6.90
2019-04-28T07:22:02.860Z,7.00
2019-04-28T07:24:32.116Z,7.10
2019-04-28T07:27:01.519Z,7.10
2019-04-28T07:29:30.877Z,7.20
2019-04-28T07:32:00.423Z,7.20
2019-04-28T07:34:29.717Z,7.20
2019-04-28T07:36:59.008Z,7.40
2019-04-28T07:39:28.372Z,7.40
2019-04-28T07:41:57.992Z,7.50
2019-04-28T07:44:27.272Z,7.60
2019-04-28T07:46:56.767Z,7.80
2019-04-28T07:49:26.102Z,8.00
2019-04-28T07:52:26.477Z,8.00
2019-04-28T07:54:55.764Z,7.90
2019-04-28T07:57:25.077Z,7.60
2019-04-28T07:59:54.398Z,7.50
2019-04-28T08:02:23.700Z,7.60
2019-04-28T08:04:53.017Z,7.70
2019-04-28T08:07:22.311Z,7.80
2019-04-28T08:09:51.542Z,7.90
2019-04-28T08:12:20.893Z,8.10
2019-04-28T08:14:51.642Z,8.20
2019-04-28T08:17:21.342Z,8.30
2019-04-28T08:19:50.649Z,8.40
2019-04-28T08:22:20.058Z,8.50
2019-04-28T08:24:49.441Z,8.40
2019-04-28T08:27:18.846Z,8.40
2019-04-28T08:29:58.013Z,8.40
2019-04-28T08:32:34.219Z,8.40
2019-04-28T08:35:03.570Z,8.40
2019-04-28T08:37:32.883Z,8.10
2019-04-28T08:40:02.205Z,8.00
2019-04-28T08:42:31.657Z,8.00
2019-04-28T08:45:00.929Z,7.80
2019-04-28T08:47:30.298Z,7.90
2019-04-28T08:49:59.674Z,8.10
2019-04-28T08:52:28.991Z,8.30
2019-04-28T08:54:58.340Z,8.50
2019-04-28T08:57:27.699Z,8.50
2019-04-28T08:59:57.001Z,8.60
2019-04-28T09:02:26.328Z,8.50
2019-04-28T09:04:55.623Z,8.60
2019-04-28T09:07:26.177Z,8.70
2019-04-28T09:09:55.459Z,8.90
2019-04-28T09:12:24.782Z,8.80
2019-04-28T09:14:54.061Z,8.80
2019-04-28T09:17:23.489Z,8.70
2019-04-28T09:19:52.775Z,8.60
2019-04-28T09:22:22.114Z,8.60
2019-04-28T09:24:51.445Z,8.50
2019-04-28T09:27:21.031Z,8.40
2019-04-28T09:29:50.343Z,8.40
2019-04-28T09:32:19.775Z,8.40
2019-04-28T09:34:49.207Z,8.40
2019-04-28T09:37:18.779Z,8.50
2019-04-28T09:39:55.684Z,8.60
2019-04-28T09:42:42.591Z,8.70
2019-04-28T09:45:21.440Z,8.90
2019-04-28T09:47:51.675Z,9.10
2019-04-28T09:50:23.047Z,9.30
2019-04-28T09:52:53.390Z,9.50
2019-04-28T09:55:23.219Z,9.60
2019-04-28T09:57:54.822Z,9.80
2019-04-28T10:00:23.761Z,9.80
2019-04-28T10:02:53.413Z,9.90
2019-04-28T10:05:23.849Z,9.80
2019-04-28T10:07:53.132Z,9.70
2019-04-28T10:10:22.436Z,9.40
2019-04-28T10:12:51.755Z,9.20
2019-04-28T10:15:21.322Z,9.00
2019-04-28T10:17:50.738Z,8.70
2019-04-28T10:20:20.259Z,8.40
2019-04-28T10:22:50.128Z,8.20
2019-04-28T10:25:21.159Z,8.10
2019-04-28T10:27:50.835Z,8.10
2019-04-28T10:30:20.390Z,8.10
2019-04-28T10:32:49.735Z,8.10
2019-04-28T10:35:20.619Z,8.10
2019-04-28T10:37:49.950Z,8.00
2019-04-28T10:40:38.078Z,7.90
2019-04-28T10:43:07.384Z,7.90
2019-04-28T10:45:45.948Z,7.80
2019-04-28T10:48:15.799Z,7.80
2019-04-28T10:50:45.097Z,7.80
2019-04-28T10:53:15.662Z,7.80
2019-04-28T10:55:45.020Z,7.90
2019-04-28T10:58:14.411Z,8.00
2019-04-28T11:00:43.812Z,8.10
2019-04-28T11:03:13.174Z,8.30
2019-04-28T11:05:43.764Z,8.50
2019-04-28T11:08:32.391Z,8.80
2019-04-28T11:11:06.765Z,9.00
2019-04-28T11:13:36.106Z,9.50
2019-04-28T11:16:05.443Z,9.60
2019-04-28T11:18:34.779Z,9.70
2019-04-28T11:21:04.092Z,9.90
2019-04-28T11:23:33.453Z,9.70
2019-04-28T11:26:02.844Z,9.70
2019-04-28T11:28:32.181Z,9.80
2019-04-28T11:31:20.795Z,9.50
2019-04-28T11:34:24.559Z,9.30
2019-04-28T11:36:53.865Z,9.00
2019-04-28T11:39:33.898Z,8.70
2019-04-28T11:42:03.302Z,8.60
2019-04-28T11:44:34.283Z,8.70
2019-04-28T11:47:05.512Z,8.70
2019-04-28T11:49:34.907Z,8.80
2019-04-28T11:52:05.192Z,8.90
2019-04-28T11:54:34.578Z,8.90
2019-04-28T11:57:03.874Z,9.00
2019-04-28T11:59:33.233Z,9.20
2019-04-28T12:02:02.800Z,9.20
2019-04-28T12:04:32.635Z,9.30
2019-04-28T12:07:01.944Z,9.40
2019-04-28T12:09:48.225Z,9.70
2019-04-28T12:12:33.541Z,10.00
2019-04-28T12:15:21.150Z,10.50
2019-04-28T12:18:08.842Z,10.80
2019-04-28T12:20:38.276Z,11.00
2019-04-28T12:23:28.192Z,11.00
2019-04-28T12:25:57.558Z,11.00
2019-04-28T12:28:27.603Z,11.00
2019-04-28T12:30:56.977Z,10.90
2019-04-28T12:33:26.295Z,11.00
2019-04-28T12:35:57.380Z,11.30
2019-04-28T12:38:26.690Z,11.50
2019-04-28T12:40:56.078Z,11.60
2019-04-28T12:43:26.574Z,11.90
2019-04-28T12:45:57.904Z,12.20
2019-04-28T12:48:27.292Z,12.10
2019-04-28T13:22:29.178Z,13.40
2019-04-28T13:24:58.483Z,13.10
2019-04-28T13:27:27.847Z,12.50
2019-04-28T13:30:00.210Z,12.00
2019-04-28T13:32:29.687Z,11.60
2019-04-28T13:34:59.749Z,11.30
2019-04-28T13:37:29.152Z,11.00
2019-04-28T13:40:01.990Z,10.70
2019-04-28T13:42:31.325Z,10.70
2019-04-28T13:45:04.148Z,10.60
2019-04-28T13:47:33.509Z,10.70
2019-04-28T13:50:12.097Z,10.80
2019-04-28T13:52:41.398Z,11.00
2019-04-28T13:55:48.444Z,11.20
2019-04-28T13:58:19.824Z,11.20
2019-04-28T14:01:20.366Z,11.20
2019-04-28T14:04:09.453Z,11.10
2019-04-28T14:06:42.081Z,11.30
2019-04-28T14:09:16.102Z,11.50
2019-04-28T14:11:46.767Z,11.60
2019-04-28T14:14:19.358Z,11.50
2019-04-28T14:16:49.305Z,11.40
2019-04-28T14:19:18.630Z,11.50
2019-04-28T14:21:48.593Z,11.50
2019-04-28T14:24:20.746Z,11.60
2019-04-28T14:26:50.299Z,11.70
2019-04-28T14:29:19.612Z,11.70
2019-04-28T14:31:48.964Z,11.90
2019-04-28T14:34:18.248Z,12.00
2019-04-28T14:36:47.757Z,12.20
2019-04-28T14:39:18.483Z,12.40
2019-04-28T14:41:47.933Z,12.40
2019-04-28T14:44:17.878Z,12.40
2019-04-28T14:46:47.407Z,12.30
2019-04-28T14:49:16.837Z,12.50
2019-04-28T14:51:46.352Z,12.70
2019-04-28T14:54:15.831Z,12.70
2019-04-28T14:56:45.141Z,12.80
2019-04-28T14:59:14.477Z,12.90
2019-04-28T15:02:08.715Z,13.00
2019-04-28T15:04:55.682Z,13.10
2019-04-28T15:07:42.936Z,12.90
2019-04-28T15:10:35.612Z,12.50
2019-04-28T15:13:05.940Z,12.20
2019-04-28T15:15:35.491Z,11.90
2019-04-28T15:18:06.422Z,11.60
2019-04-28T15:20:39.727Z,11.40
2019-04-28T15:23:19.504Z,11.30
2019-04-28T15:25:48.913Z,11.10
2019-04-28T15:28:18.354Z,11.30
2019-04-28T15:30:47.733Z,11.40
2019-04-28T15:33:17.247Z,11.40
2019-04-28T15:35:46.587Z,11.30
2019-04-28T15:38:17.629Z,11.30
2019-04-28T15:40:47.189Z,11.40
2019-04-28T15:43:16.574Z,11.40
2019-04-28T15:45:45.991Z,11.50
2019-04-28T15:48:15.418Z,11.50
2019-04-28T15:50:44.914Z,11.70
2019-04-28T15:53:14.292Z,11.60
2019-04-28T15:56:03.025Z,11.40
2019-04-28T15:58:38.542Z,11.30
2019-04-28T16:01:15.454Z,11.10
2019-04-28T16:03:48.479Z,10.80
2019-04-28T16:06:17.977Z,10.70
2019-04-28T16:08:49.712Z,10.70
2019-04-28T16:11:21.536Z,10.60
2019-04-28T16:13:50.889Z,10.60
2019-04-28T16:16:20.338Z,10.60
2019-04-28T16:18:49.757Z,10.50
2019-04-28T16:21:19.321Z,10.40
2019-04-28T16:23:48.732Z,10.20
2019-04-28T16:26:18.125Z,10.20
2019-04-28T16:28:47.664Z,10.30
2019-04-28T16:31:17.024Z,10.30
2019-04-28T16:33:46.475Z,10.40
2019-04-28T16:36:15.931Z,10.60
2019-04-28T16:38:45.351Z,10.50
2019-04-28T16:41:19.326Z,10.40
2019-04-28T16:44:00.962Z,10.30
2019-04-28T16:46:32.879Z,10.20
2019-04-28T16:49:02.384Z,10.20
2019-04-28T16:51:31.833Z,10.30
2019-04-28T16:54:01.271Z,10.40
2019-04-28T16:56:55.501Z,10.40
2019-04-28T17:00:01.278Z,10.40
2019-04-28T17:02:42.982Z,10.30
2019-04-28T17:05:12.593Z,10.00
2019-04-28T17:07:52.557Z,9.60
2019-04-28T17:10:14.245Z,9.40
2019-04-28T17:13:03.047Z,9.00
2019-04-28T17:15:32.748Z,8.50
2019-04-28T17:18:02.131Z,8.30
2019-04-28T17:20:31.478Z,8.20
2019-04-28T17:23:00.868Z,8.20
2019-04-28T17:25:30.281Z,8.20
2019-04-28T17:28:03.476Z,8.10
2019-04-28T17:30:33.568Z,8.00
2019-04-28T17:33:09.215Z,7.90
2019-04-28T17:35:49.775Z,7.80
2019-04-28T17:38:19.659Z,7.80
2019-04-28T17:40:49.687Z,7.70
2019-04-28T17:43:19.868Z,7.70
2019-04-28T17:45:49.657Z,7.60
2019-04-28T17:48:28.089Z,7.70
2019-04-28T17:50:57.840Z,7.80
2019-04-28T17:53:27.979Z,7.80
2019-04-28T17:55:57.790Z,8.00
2019-04-28T17:58:28.288Z,8.00
2019-04-28T18:01:16.935Z,8.20
2019-04-28T18:04:02.370Z,8.30
2019-04-28T18:06:32.599Z,8.50
2019-04-28T18:09:02.048Z,8.50
2019-04-28T18:11:31.681Z,8.50
2019-04-28T18:14:04.013Z,8.60
2019-04-28T18:16:49.799Z,8.60
2019-04-28T18:19:19.790Z,8.60
2019-04-28T18:21:49.251Z,8.60
2019-04-28T18:24:18.727Z,8.50
2019-04-28T18:26:48.062Z,8.40
2019-04-28T18:29:17.505Z,8.40
2019-04-28T18:32:11.685Z,8.40
2019-04-28T18:34:48.739Z,8.40
2019-04-28T18:37:37.129Z,8.40
2019-04-28T18:40:26.031Z,8.40
2019-04-28T18:43:20.132Z,8.50
2019-04-28T18:45:49.457Z,8.60
2019-04-28T18:48:18.789Z,8.60
2019-04-28T18:50:48.148Z,8.50
2019-04-28T18:53:17.625Z,8.40
2019-04-28T18:55:48.436Z,8.30
2019-04-28T18:58:17.775Z,8.20
2019-04-28T19:00:55.092Z,8.20
2019-04-28T19:03:24.426Z,8.40
2019-04-28T19:05:54.214Z,8.50
2019-04-28T19:08:48.922Z,8.60
2019-04-28T19:11:22.653Z,8.60
2019-04-28T19:14:14.129Z,8.70
2019-04-28T19:17:11.556Z,8.70
2019-04-28T19:19:41.362Z,8.80
2019-04-28T19:22:10.997Z,8.90
2019-04-28T19:24:40.468Z,8.90
2019-04-28T19:27:09.876Z,8.90
2019-04-28T19:29:39.288Z,8.80
2019-04-28T19:32:08.661Z,9.00
2019-04-28T19:34:38.472Z,9.00
2019-04-28T19:37:07.805Z,9.00
2019-04-28T19:39:37.160Z,9.00
2019-04-28T19:42:06.733Z,9.00
2019-04-28T19:44:36.113Z,9.00
2019-04-28T19:47:24.664Z,8.90
2019-04-28T19:49:54.741Z,8.90
2019-04-28T19:52:24.275Z,9.00
2019-04-28T19:55:12.732Z,9.00
2019-04-28T19:57:50.931Z,8.90
2019-04-28T20:00:27.874Z,8.80
2019-04-28T20:02:57.372Z,8.80
2019-04-28T20:05:26.844Z,8.70
2019-04-28T20:07:56.350Z,8.70
2019-04-28T20:10:25.855Z,8.50
2019-04-28T20:12:55.457Z,8.40
2019-04-28T20:15:24.870Z,8.30
2019-04-28T20:17:54.249Z,8.20
2019-04-28T20:20:23.645Z,8.10
2019-04-28T20:22:53.185Z,8.00
2019-04-28T20:25:22.631Z,7.90
2019-04-28T20:27:52.153Z,7.90
2019-04-28T20:30:21.731Z,7.80
2019-04-28T20:32:51.235Z,7.70
2019-04-28T20:35:25.249Z,7.60
2019-04-28T20:38:10.258Z,7.50
2019-04-28T20:40:44.953Z,7.40
2019-04-28T20:43:18.572Z,7.40
2019-04-28T20:45:48.175Z,7.30
2019-04-28T20:48:17.564Z,7.30
2019-04-28T20:50:47.282Z,7.20
2019-04-28T20:53:19.273Z,7.10
2019-04-28T20:55:48.160Z,7.00
2019-04-28T20:58:17.625Z,7.00
2019-04-28T21:00:47.191Z,6.90
2019-04-28T21:03:16.772Z,6.90
2019-04-28T21:05:46.326Z,6.80
2019-04-28T21:08:15.862Z,6.80
2019-04-28T21:10:45.411Z,6.80
2019-04-28T21:13:14.928Z,6.80
2019-04-28T21:15:44.631Z,6.90
2019-04-28T21:18:14.195Z,6.90
2019-04-28T21:20:43.764Z,7.00
2019-04-28T21:23:13.368Z,7.10
2019-04-28T21:25:42.793Z,7.10
2019-04-28T21:28:12.203Z,7.30
2019-04-28T21:30:41.801Z,7.50
2019-04-28T21:33:11.393Z,7.60
2019-04-28T21:35:40.928Z,7.60
2019-04-28T21:38:10.628Z,7.60
2019-04-28T21:40:41.600Z,7.50
2019-04-28T21:43:19.857Z,7.40
2019-04-28T21:45:59.346Z,7.30
2019-04-28T21:48:53.660Z,7.30
2019-04-28T21:51:23.075Z,7.20
2019-04-28T21:53:52.625Z,7.20
2019-04-28T21:56:22.153Z,7.20
2019-04-28T21:58:51.655Z,7.10
2019-04-28T22:01:23.167Z,7.00
2019-04-28T22:03:52.973Z,6.90
2019-04-28T22:06:22.554Z,6.80
2019-04-28T22:08:52.199Z,6.70
2019-04-28T22:11:21.785Z,6.60
2019-04-28T22:13:51.422Z,6.60
2019-04-28T22:16:20.962Z,6.60
2019-04-28T22:18:50.675Z,6.50
2019-04-28T22:21:21.295Z,6.50
2019-04-28T22:24:19.355Z,6.40
2019-04-28T22:26:50.398Z,6.40
2019-04-28T22:29:19.995Z,6.30
2019-04-28T22:31:50.252Z,6.30
2019-04-28T22:34:19.841Z,6.30
2019-04-28T22:36:49.695Z,6.30
2019-04-28T22:39:19.487Z,6.30
2019-04-28T22:41:49.159Z,6.30
2019-04-28T22:44:18.943Z,6.30
2019-04-28T22:46:48.654Z,6.30
2019-04-28T22:49:18.334Z,6.30
2019-04-28T22:51:48.169Z,6.30
2019-04-28T22:54:44.085Z,6.40
2019-04-28T22:57:32.207Z,6.40
2019-04-28T23:00:01.707Z,6.40
2019-04-28T23:02:31.580Z,6.40
2019-04-28T23:05:03.119Z,6.40
2019-04-28T23:07:32.603Z,6.40
2019-04-28T23:10:02.118Z,6.40
2019-04-28T23:12:31.451Z,6.40
2019-04-28T23:15:00.845Z,6.40
2019-04-28T23:17:30.154Z,6.40
2019-04-28T23:19:59.529Z,6.40
2019-04-28T23:22:46.980Z,6.40
2019-04-28T23:25:15.396Z,6.30
2019-04-28T23:27:44.767Z,6.30
2019-04-28T23:30:33.671Z,6.30
2019-04-28T23:33:03.088Z,6.30
2019-04-28T23:35:32.609Z,6.30
2019-04-28T23:38:02.360Z,6.20
2019-04-28T23:40:31.954Z,6.20
2019-04-28T23:43:05.678Z,6.20
2019-04-28T23:45:35.199Z,6.20
2019-04-28T23:48:04.923Z,6.10
2019-04-28T23:50:43.493Z,6.10
2019-04-28T23:53:16.117Z,6.10
2019-04-28T23:55:54.486Z,6.00
2019-04-28T23:58:24.055Z,6.10
